sensor_id;sensor_type;location;lat;lon;timestamp;P1;durP1;ratioP1;P2;durP2;ratioP2
42670;SDS011;28283;55.426;37.756;2023-07-22T00:04:46;2.30;;;1.10;;
42670;SDS011;28283;55.426;37.756;2023-07-22T00:09:46;5.95;;;1.10;;
42670;SDS011;28283;55.426;37.756;2023-07-22T00:14:50;3.03;;;1.30;;
42670;SDS011;28283;55.426;37.756;2023-07-22T00:19:50;2.40;;;1.00;;
42670;SDS011;28283;55.426;37.756;2023-07-22T00:24:51;5.77;;;2.00;;
42670;SDS011;28283;55.426;37.756;2023-07-22T00:29:52;4.85;;;1.05;;
42670;SDS011;28283;55.426;37.756;2023-07-22T00:34:52;4.18;;;1.55;;
42670;SDS011;28283;55.426;37.756;2023-07-22T00:39:53;4.68;;;1.65;;
42670;SDS011;28283;55.426;37.756;2023-07-22T00:44:55;1.20;;;0.90;;
42670;SDS011;28283;55.426;37.756;2023-07-22T00:49:55;2.97;;;0.90;;
42670;SDS011;28283;55.426;37.756;2023-07-22T00:54:56;5.80;;;1.45;;
42670;SDS011;28283;55.426;37.756;2023-07-22T01:04:58;2.38;;;1.40;;
42670;SDS011;28283;55.426;37.756;2023-07-22T01:09:59;2.17;;;1.20;;
42670;SDS011;28283;55.426;37.756;2023-07-22T01:14:59;1.93;;;1.10;;
42670;SDS011;28283;55.426;37.756;2023-07-22T01:20:01;2.90;;;1.20;;
42670;SDS011;28283;55.426;37.756;2023-07-22T01:25:03;3.35;;;1.00;;
42670;SDS011;28283;55.426;37.756;2023-07-22T01:35:07;3.83;;;1.63;;
42670;SDS011;28283;55.426;37.756;2023-07-22T01:40:08;3.30;;;1.25;;
42670;SDS011;28283;55.426;37.756;2023-07-22T01:45:12;3.28;;;1.27;;
42670;SDS011;28283;55.426;37.756;2023-07-22T01:50:12;6.97;;;1.50;;
42670;SDS011;28283;55.426;37.756;2023-07-22T01:55:13;3.73;;;1.70;;
42670;SDS011;28283;55.426;37.756;2023-07-22T02:00:14;5.70;;;1.88;;
42670;SDS011;28283;55.426;37.756;2023-07-22T02:05:15;1.90;;;1.40;;
42670;SDS011;28283;55.426;37.756;2023-07-22T02:10:16;1.67;;;1.10;;
42670;SDS011;28283;55.426;37.756;2023-07-22T02:15:16;7.97;;;1.40;;
42670;SDS011;28283;55.426;37.756;2023-07-22T02:20:17;3.07;;;1.20;;
42670;SDS011;28283;55.426;37.756;2023-07-22T02:25:17;2.20;;;1.23;;
42670;SDS011;28283;55.426;37.756;2023-07-22T06:52:41;3.50;;;0.43;;
42670;SDS011;28283;55.426;37.756;2023-07-22T07:02:43;2.45;;;0.40;;
42670;SDS011;28283;55.426;37.756;2023-07-22T07:12:44;0.83;;;0.40;;
42670;SDS011;28283;55.426;37.756;2023-07-22T07:22:45;2.00;;;0.38;;
42670;SDS011;28283;55.426;37.756;2023-07-22T07:32:46;0.43;;;0.30;;
42670;SDS011;28283;55.426;37.756;2023-07-22T07:42:47;1.67;;;0.43;;
42670;SDS011;28283;55.426;37.756;2023-07-22T07:47:48;1.45;;;0.30;;
42670;SDS011;28283;55.426;37.756;2023-07-22T07:57:49;2.75;;;0.32;;
42670;SDS011;28283;55.426;37.756;2023-07-22T08:02:50;0.20;;;0.17;;
42670;SDS011;28283;55.426;37.756;2023-07-22T08:12:51;2.40;;;0.60;;
42670;SDS011;28283;55.426;37.756;2023-07-22T08:17:51;2.33;;;0.40;;
42670;SDS011;28283;55.426;37.756;2023-07-22T08:22:52;1.17;;;0.55;;
42670;SDS011;28283;55.426;37.756;2023-07-22T08:27:52;0.77;;;0.30;;
42670;SDS011;28283;55.426;37.756;2023-07-22T08:37:53;0.60;;;0.60;;
42670;SDS011;28283;55.426;37.756;2023-07-22T08:47:55;2.35;;;0.30;;
42670;SDS011;28283;55.426;37.756;2023-07-22T08:52:58;1.00;;;0.30;;
42670;SDS011;28283;55.426;37.756;2023-07-22T08:58:00;2.38;;;0.35;;
42670;SDS011;28283;55.426;37.756;2023-07-22T09:03:02;1.70;;;0.30;;
42670;SDS011;28283;55.426;37.756;2023-07-22T09:08:06;0.40;;;0.25;;
42670;SDS011;28283;55.426;37.756;2023-07-22T09:13:07;0.38;;;0.30;;
42670;SDS011;28283;55.426;37.756;2023-07-22T09:23:09;5.45;;;0.30;;
42670;SDS011;28283;55.426;37.756;2023-07-22T09:28:10;0.52;;;0.40;;
42670;SDS011;28283;55.426;37.756;2023-07-22T09:38:24;2.92;;;0.38;;
42670;SDS011;28283;55.426;37.756;2023-07-22T09:43:25;0.85;;;0.20;;
42670;SDS011;28283;55.426;37.756;2023-07-22T09:48:26;0.70;;;0.20;;
42670;SDS011;28283;55.426;37.756;2023-07-22T09:53:26;0.47;;;0.40;;
42670;SDS011;28283;55.426;37.756;2023-07-22T09:58:27;0.95;;;0.40;;
42670;SDS011;28283;55.426;37.756;2023-07-22T10:03:31;1.30;;;0.60;;
42670;SDS011;28283;55.426;37.756;2023-07-22T10:08:33;1.13;;;0.30;;
42670;SDS011;28283;55.426;37.756;2023-07-22T10:13:36;0.80;;;0.32;;
42670;SDS011;28283;55.426;37.756;2023-07-22T10:18:37;2.47;;;0.82;;
42670;SDS011;28283;55.426;37.756;2023-07-22T10:23:38;0.60;;;0.30;;
42670;SDS011;28283;55.426;37.756;2023-07-22T10:28:40;0.30;;;0.13;;
42670;SDS011;28283;55.426;37.756;2023-07-22T10:33:42;3.85;;;0.40;;
42670;SDS011;28283;55.426;37.756;2023-07-22T10:38:44;0.40;;;0.30;;
42670;SDS011;28283;55.426;37.756;2023-07-22T10:43:56;1.40;;;0.20;;
42670;SDS011;28283;55.426;37.756;2023-07-22T10:49:14;2.80;;;0.40;;
42670;SDS011;28283;55.426;37.756;2023-07-22T10:54:30;0.38;;;0.20;;
42670;SDS011;28283;55.426;37.756;2023-07-22T10:59:36;1.65;;;0.75;;
42670;SDS011;28283;55.426;37.756;2023-07-22T11:04:39;1.00;;;0.20;;
42670;SDS011;28283;55.426;37.756;2023-07-22T11:09:40;0.68;;;0.32;;
42670;SDS011;28283;55.426;37.756;2023-07-22T11:19:48;0.52;;;0.32;;
42670;SDS011;28283;55.426;37.756;2023-07-22T11:24:49;0.20;;;0.20;;
42670;SDS011;28283;55.426;37.756;2023-07-22T11:29:50;1.65;;;0.28;;
42670;SDS011;28283;55.426;37.756;2023-07-22T11:34:51;2.38;;;0.30;;
42670;SDS011;28283;55.426;37.756;2023-07-22T11:39:52;4.72;;;0.20;;
42670;SDS011;28283;55.426;37.756;2023-07-22T11:44:54;0.57;;;0.28;;
42670;SDS011;28283;55.426;37.756;2023-07-22T11:49:55;0.95;;;0.30;;
42670;SDS011;28283;55.426;37.756;2023-07-22T11:54:55;4.63;;;0.63;;
42670;SDS011;28283;55.426;37.756;2023-07-22T12:00:02;4.10;;;0.65;;
42670;SDS011;28283;55.426;37.756;2023-07-22T12:05:04;4.72;;;0.73;;
42670;SDS011;28283;55.426;37.756;2023-07-22T12:10:06;1.52;;;0.60;;
42670;SDS011;28283;55.426;37.756;2023-07-22T12:15:10;1.35;;;0.57;;
42670;SDS011;28283;55.426;37.756;2023-07-22T12:25:19;0.43;;;0.30;;
42670;SDS011;28283;55.426;37.756;2023-07-22T12:30:20;0.63;;;0.40;;
42670;SDS011;28283;55.426;37.756;2023-07-22T12:35:21;17.70;;;3.80;;
42670;SDS011;28283;55.426;37.756;2023-07-22T12:40:23;1.73;;;0.73;;
42670;SDS011;28283;55.426;37.756;2023-07-22T12:45:23;1.85;;;0.70;;
42670;SDS011;28283;55.426;37.756;2023-07-22T12:50:24;3.45;;;0.57;;
42670;SDS011;28283;55.426;37.756;2023-07-22T12:55:25;2.83;;;0.80;;
42670;SDS011;28283;55.426;37.756;2023-07-22T13:00:26;0.55;;;0.47;;
42670;SDS011;28283;55.426;37.756;2023-07-22T13:05:27;2.25;;;1.25;;
42670;SDS011;28283;55.426;37.756;2023-07-22T13:10:34;0.35;;;0.25;;
42670;SDS011;28283;55.426;37.756;2023-07-22T13:15:37;0.55;;;0.20;;
42670;SDS011;28283;55.426;37.756;2023-07-22T13:20:38;2.25;;;0.30;;
42670;SDS011;28283;55.426;37.756;2023-07-22T13:25:39;0.65;;;0.30;;
42670;SDS011;28283;55.426;37.756;2023-07-22T13:30:39;1.38;;;1.15;;
42670;SDS011;28283;55.426;37.756;2023-07-22T13:35:40;0.90;;;0.50;;
42670;SDS011;28283;55.426;37.756;2023-07-22T13:40:41;0.60;;;0.43;;
42670;SDS011;28283;55.426;37.756;2023-07-22T13:45:42;1.42;;;0.80;;
42670;SDS011;28283;55.426;37.756;2023-07-22T13:50:42;1.42;;;0.65;;
42670;SDS011;28283;55.426;37.756;2023-07-22T13:55:43;0.60;;;0.22;;
42670;SDS011;28283;55.426;37.756;2023-07-22T14:00:44;0.80;;;0.30;;
42670;SDS011;28283;55.426;37.756;2023-07-22T14:05:45;0.93;;;0.40;;
42670;SDS011;28283;55.426;37.756;2023-07-22T14:10:46;3.65;;;0.43;;
42670;SDS011;28283;55.426;37.756;2023-07-22T14:15:47;2.70;;;0.40;;
42670;SDS011;28283;55.426;37.756;2023-07-22T14:20:47;1.63;;;0.52;;
42670;SDS011;28283;55.426;37.756;2023-07-22T14:25:48;1.42;;;0.60;;
42670;SDS011;28283;55.426;37.756;2023-07-22T14:30:49;1.15;;;0.55;;
42670;SDS011;28283;55.426;37.756;2023-07-22T14:35:49;2.88;;;0.43;;
42670;SDS011;28283;55.426;37.756;2023-07-22T14:40:50;1.08;;;0.60;;
42670;SDS011;28283;55.426;37.756;2023-07-22T14:45:50;4.72;;;2.65;;
42670;SDS011;28283;55.426;37.756;2023-07-22T14:50:52;1.50;;;0.40;;
42670;SDS011;28283;55.426;37.756;2023-07-22T14:55:53;0.30;;;0.25;;
42670;SDS011;28283;55.426;37.756;2023-07-22T15:00:54;0.88;;;0.20;;
42670;SDS011;28283;55.426;37.756;2023-07-22T15:05:54;0.75;;;0.43;;
42670;SDS011;28283;55.426;37.756;2023-07-22T15:10:55;1.30;;;0.63;;
42670;SDS011;28283;55.426;37.756;2023-07-22T15:15:56;2.17;;;0.45;;
42670;SDS011;28283;55.426;37.756;2023-07-22T15:20:57;1.77;;;0.98;;
42670;SDS011;28283;55.426;37.756;2023-07-22T15:25:57;0.88;;;0.40;;
42670;SDS011;28283;55.426;37.756;2023-07-22T15:30:59;4.05;;;1.45;;
42670;SDS011;28283;55.426;37.756;2023-07-22T15:35:59;2.30;;;0.40;;
42670;SDS011;28283;55.426;37.756;2023-07-22T15:41:00;0.80;;;0.30;;
42670;SDS011;28283;55.426;37.756;2023-07-22T15:46:02;0.73;;;0.38;;
42670;SDS011;28283;55.426;37.756;2023-07-22T15:51:02;1.00;;;0.50;;
42670;SDS011;28283;55.426;37.756;2023-07-22T15:56:03;1.83;;;0.47;;
42670;SDS011;28283;55.426;37.756;2023-07-22T16:01:04;1.45;;;1.17;;
42670;SDS011;28283;55.426;37.756;2023-07-22T16:06:05;2.15;;;0.93;;
42670;SDS011;28283;55.426;37.756;2023-07-22T16:11:06;1.42;;;0.65;;
42670;SDS011;28283;55.426;37.756;2023-07-22T16:16:06;2.95;;;0.95;;
42670;SDS011;28283;55.426;37.756;2023-07-22T16:21:07;5.85;;;1.08;;
42670;SDS011;28283;55.426;37.756;2023-07-22T16:26:08;2.58;;;0.98;;
42670;SDS011;28283;55.426;37.756;2023-07-22T16:31:08;1.85;;;1.15;;
42670;SDS011;28283;55.426;37.756;2023-07-22T16:36:09;4.88;;;1.52;;
42670;SDS011;28283;55.426;37.756;2023-07-22T16:41:10;3.33;;;1.35;;
42670;SDS011;28283;55.426;37.756;2023-07-22T16:46:10;3.42;;;1.20;;
42670;SDS011;28283;55.426;37.756;2023-07-22T16:51:11;2.33;;;1.13;;
42670;SDS011;28283;55.426;37.756;2023-07-22T16:56:12;7.25;;;2.90;;
42670;SDS011;28283;55.426;37.756;2023-07-22T17:01:12;3.92;;;2.90;;
42670;SDS011;28283;55.426;37.756;2023-07-22T17:06:13;10.55;;;7.25;;
42670;SDS011;28283;55.426;37.756;2023-07-22T17:11:14;6.32;;;3.72;;
42670;SDS011;28283;55.426;37.756;2023-07-22T17:16:15;7.85;;;2.60;;
42670;SDS011;28283;55.426;37.756;2023-07-22T17:21:15;3.97;;;2.30;;
42670;SDS011;28283;55.426;37.756;2023-07-22T17:26:16;1.67;;;1.00;;
42670;SDS011;28283;55.426;37.756;2023-07-22T17:36:17;1.63;;;0.50;;
42670;SDS011;28283;55.426;37.756;2023-07-22T17:46:18;1.35;;;0.60;;
42670;SDS011;28283;55.426;37.756;2023-07-22T17:56:19;2.75;;;0.88;;
42670;SDS011;28283;55.426;37.756;2023-07-22T18:06:20;3.22;;;0.80;;
42670;SDS011;28283;55.426;37.756;2023-07-22T18:11:22;2.70;;;1.30;;
42670;SDS011;28283;55.426;37.756;2023-07-22T18:21:23;3.53;;;1.02;;
42670;SDS011;28283;55.426;37.756;2023-07-22T18:31:24;6.93;;;4.43;;
42670;SDS011;28283;55.426;37.756;2023-07-22T18:41:25;12.07;;;8.23;;
42670;SDS011;28283;55.426;37.756;2023-07-22T18:46:27;8.00;;;5.03;;
42670;SDS011;28283;55.426;37.756;2023-07-22T18:56:31;4.75;;;2.55;;
42670;SDS011;28283;55.426;37.756;2023-07-22T19:06:32;4.40;;;1.95;;
42670;SDS011;28283;55.426;37.756;2023-07-22T19:16:34;3.15;;;2.40;;
42670;SDS011;28283;55.426;37.756;2023-07-22T19:26:35;2.83;;;2.20;;
42670;SDS011;28283;55.426;37.756;2023-07-22T19:36:36;1.63;;;1.53;;
42670;SDS011;28283;55.426;37.756;2023-07-22T19:46:37;5.32;;;2.72;;
42670;SDS011;28283;55.426;37.756;2023-07-22T19:56:37;4.03;;;2.80;;
42670;SDS011;28283;55.426;37.756;2023-07-22T20:06:42;4.53;;;2.47;;
42670;SDS011;28283;55.426;37.756;2023-07-22T20:11:43;5.40;;;3.45;;
42670;SDS011;28283;55.426;37.756;2023-07-22T20:21:44;4.00;;;2.97;;
42670;SDS011;28283;55.426;37.756;2023-07-22T20:26:44;5.70;;;3.10;;
42670;SDS011;28283;55.426;37.756;2023-07-22T20:36:47;4.60;;;3.58;;
42670;SDS011;28283;55.426;37.756;2023-07-22T20:46:48;9.17;;;4.20;;
42670;SDS011;28283;55.426;37.756;2023-07-22T20:51:49;4.18;;;3.65;;
42670;SDS011;28283;55.426;37.756;2023-07-22T20:56:49;5.25;;;3.95;;
42670;SDS011;28283;55.426;37.756;2023-07-22T21:06:51;10.20;;;3.13;;
42670;SDS011;28283;55.426;37.756;2023-07-22T21:11:51;4.38;;;3.20;;
42670;SDS011;28283;55.426;37.756;2023-07-22T21:21:52;7.25;;;4.35;;
42670;SDS011;28283;55.426;37.756;2023-07-22T21:26:53;6.53;;;4.10;;
42670;SDS011;28283;55.426;37.756;2023-07-22T21:31:53;3.80;;;3.05;;
42670;SDS011;28283;55.426;37.756;2023-07-22T21:36:54;5.65;;;3.00;;
42670;SDS011;28283;55.426;37.756;2023-07-22T21:46:59;6.32;;;3.30;;
42670;SDS011;28283;55.426;37.756;2023-07-22T21:51:59;3.83;;;2.88;;
42670;SDS011;28283;55.426;37.756;2023-07-22T21:57:04;4.03;;;3.38;;
42670;SDS011;28283;55.426;37.756;2023-07-22T22:07:06;6.73;;;3.13;;
42670;SDS011;28283;55.426;37.756;2023-07-22T22:12:06;5.40;;;3.17;;
42670;SDS011;28283;55.426;37.756;2023-07-22T22:17:07;4.18;;;3.13;;
42670;SDS011;28283;55.426;37.756;2023-07-22T22:27:08;10.95;;;3.75;;
42670;SDS011;28283;55.426;37.756;2023-07-22T22:32:10;5.90;;;3.38;;
42670;SDS011;28283;55.426;37.756;2023-07-22T22:37:11;5.97;;;3.22;;
42670;SDS011;28283;55.426;37.756;2023-07-22T22:42:11;5.28;;;3.90;;
42670;SDS011;28283;55.426;37.756;2023-07-22T22:47:12;4.87;;;2.87;;
42670;SDS011;28283;55.426;37.756;2023-07-22T22:52:12;6.68;;;3.28;;
42670;SDS011;28283;55.426;37.756;2023-07-22T22:57:13;4.55;;;3.50;;
42670;SDS011;28283;55.426;37.756;2023-07-22T23:02:14;9.68;;;3.80;;
42670;SDS011;28283;55.426;37.756;2023-07-22T23:12:15;5.23;;;3.20;;
42670;SDS011;28283;55.426;37.756;2023-07-22T23:17:17;8.07;;;3.72;;
42670;SDS011;28283;55.426;37.756;2023-07-22T23:22:18;6.07;;;3.10;;
42670;SDS011;28283;55.426;37.756;2023-07-22T23:27:19;6.25;;;3.72;;
42670;SDS011;28283;55.426;37.756;2023-07-22T23:32:20;5.70;;;4.30;;
42670;SDS011;28283;55.426;37.756;2023-07-22T23:37:20;5.32;;;3.47;;
42670;SDS011;28283;55.426;37.756;2023-07-22T23:42:21;6.37;;;4.33;;
42670;SDS011;28283;55.426;37.756;2023-07-22T23:47:22;5.65;;;4.20;;
42670;SDS011;28283;55.426;37.756;2023-07-22T23:52:22;5.32;;;3.53;;
42670;SDS011;28283;55.426;37.756;2023-07-22T23:57:23;4.57;;;3.07;;
